Time;durP1;ratioP1;P1;durP2;ratioP2;P2;SDS_P1;SDS_P2;PMS_P1;PMS_P2;Temp;Humidity;BMP_temperature;BMP_pressure;BME280_temperature;BME280_humidity;BME280_pressure;Samples;Min_cycle;Max_cycle;Signal;HPM_P1;HPM_P2
2021/10/08 00:01:42;;;;;;;6.87;6.17;;;10.40;99.90;;;;;;6065111;23;20687;-64
2021/10/08 00:04:08;;;;;;;7.20;6.27;;;10.40;99.90;;;;;;6038144;23;20619;-65
2021/10/08 00:06:35;;;;;;;7.33;6.63;;;10.40;99.90;;;;;;6065270;23;20160;-65
2021/10/08 00:09:00;;;;;;;6.50;5.90;;;10.30;99.90;;;;;;6064355;23;20231;-65
2021/10/08 00:11:28;;;;;;;6.93;6.30;;;10.30;99.90;;;;;;6040116;23;20623;-65
2021/10/08 00:13:54;;;;;;;6.30;5.70;;;10.30;99.90;;;;;;6064642;23;20207;-65
2021/10/08 00:16:20;;;;;;;6.43;5.93;;;10.40;99.90;;;;;;6065527;23;20564;-66
2021/10/08 00:18:46;;;;;;;6.30;5.80;;;10.30;99.90;;;;;;6064612;23;20607;-66
2021/10/08 00:21:14;;;;;;;6.77;6.10;;;10.30;99.90;;;;;;6065830;23;20629;-66
2021/10/08 00:23:39;;;;;;;7.20;6.60;;;10.20;99.90;;;;;;6063906;23;20594;-65
2021/10/08 00:26:07;;;;;;;6.73;6.23;;;10.20;99.90;;;;;;6065259;23;20537;-65
2021/10/08 00:28:35;;;;;;;6.87;6.27;;;10.20;99.90;;;;;;6064259;23;20164;-65
2021/10/08 00:31:03;;;;;;;7.00;6.07;;;10.10;99.90;;;;;;6065013;23;20600;-65
2021/10/08 00:33:29;;;;;;;7.50;6.93;;;10.00;99.90;;;;;;6065145;23;20600;-65
2021/10/08 00:35:54;;;;;;;6.83;6.23;;;10.00;99.90;;;;;;6064145;23;20604;-64
2021/10/08 00:38:22;;;;;;;6.53;5.80;;;10.00;99.90;;;;;;6065085;23;20151;-65
2021/10/08 00:40:50;;;;;;;6.70;6.10;;;9.90;99.90;;;;;;6065422;23;20263;-65
2021/10/08 00:43:22;;;;;;;7.20;6.60;;;9.90;99.90;;;;;;6064834;23;20675;-67
2021/10/08 00:45:51;;;;;;;6.40;5.80;;;10.00;99.90;;;;;;6065689;23;20581;-65
2021/10/08 00:48:17;;;;;;;6.60;6.00;;;9.90;99.90;;;;;;6064631;23;20548;-65
2021/10/08 00:50:52;;;;;;;6.53;5.93;;;9.80;99.90;;;;;;6065663;23;20696;-65
2021/10/08 00:53:18;;;;;;;6.77;6.17;;;9.80;99.90;;;;;;6062599;23;20203;-65
2021/10/08 00:55:50;;;;;;;6.40;5.90;;;9.80;99.90;;;;;;6065525;23;20655;-65
2021/10/08 00:58:18;;;;;;;9.07;6.77;;;9.70;99.90;;;;;;6065103;23;20523;-65
2021/10/08 01:00:45;;;;;;;7.00;6.07;;;9.70;99.90;;;;;;6065581;23;20595;-65
2021/10/08 01:03:12;;;;;;;7.33;6.63;;;9.70;99.90;;;;;;6063829;23;20556;-65
2021/10/08 01:05:39;;;;;;;6.50;5.90;;;9.70;99.90;;;;;;6065604;23;20925;-64
2021/10/08 01:08:06;;;;;;;6.63;5.93;;;9.70;99.90;;;;;;6039481;23;20599;-66
2021/10/08 01:10:35;;;;;;;6.37;5.87;;;9.70;99.90;;;;;;6065700;23;21193;-65
2021/10/08 01:13:01;;;;;;;6.90;6.30;;;9.70;99.90;;;;;;6064310;23;20778;-64
2021/10/08 01:15:29;;;;;;;6.40;5.87;;;9.70;99.90;;;;;;6065372;23;20753;-65
2021/10/08 01:17:54;;;;;;;6.50;5.87;;;9.70;99.90;;;;;;6039332;23;20574;-64
2021/10/08 01:20:21;;;;;;;6.20;5.70;;;9.60;99.90;;;;;;6064760;23;20592;-65
2021/10/08 01:22:50;;;;;;;6.37;5.87;;;9.60;99.90;;;;;;6064688;23;20628;-65
2021/10/08 01:25:18;;;;;;;6.83;6.23;;;9.60;99.90;;;;;;6065320;23;20591;-64
2021/10/08 01:27:44;;;;;;;6.17;5.57;;;9.60;99.90;;;;;;6039893;23;20940;-65
2021/10/08 01:30:11;;;;;;;8.13;6.60;;;9.60;99.90;;;;;;6064307;23;20567;-64
2021/10/08 01:32:39;;;;;;;6.30;5.80;;;9.50;99.90;;;;;;6065748;23;20163;-64
2021/10/08 01:35:05;;;;;;;7.23;6.53;;;9.50;99.90;;;;;;6038852;23;20610;-65
2021/10/08 01:37:36;;;;;;;6.40;5.80;;;9.50;99.90;;;;;;6064492;23;20570;-65
2021/10/08 01:40:03;;;;;;;6.87;6.27;;;9.50;99.90;;;;;;6064958;23;20689;-64
2021/10/08 01:42:30;;;;;;;7.10;6.50;;;9.50;99.90;;;;;;6065103;23;20594;-64
2021/10/08 01:44:56;;;;;;;6.43;5.83;;;9.40;99.90;;;;;;6064518;23;20595;-66
2021/10/08 01:47:21;;;;;;;5.97;5.37;;;9.40;99.90;;;;;;6038578;23;20662;-65
2021/10/08 01:49:47;;;;;;;6.80;6.20;;;9.40;99.90;;;;;;6065627;23;20607;-64
2021/10/08 01:52:16;;;;;;;7.03;6.33;;;9.40;99.90;;;;;;6065801;23;20156;-64
2021/10/08 01:54:45;;;;;;;7.20;6.60;;;9.40;99.90;;;;;;6062368;23;20203;-65
2021/10/08 01:57:11;;;;;;;5.93;5.43;;;9.30;99.90;;;;;;6064878;23;21202;-65
2021/10/08 01:59:36;;;;;;;7.20;5.97;;;9.30;99.90;;;;;;6065895;23;20596;-64
2021/10/08 02:02:02;;;;;;;6.53;5.93;;;9.30;99.90;;;;;;6064620;23;20651;-66
2021/10/08 02:04:28;;;;;;;7.17;6.47;;;9.30;99.90;;;;;;6064741;23;20223;-66
2021/10/08 02:06:53;;;;;;;6.90;6.30;;;9.30;99.90;;;;;;6064489;23;20218;-65
2021/10/08 02:09:21;;;;;;;5.87;5.37;;;9.30;99.90;;;;;;6065655;23;20178;-65
2021/10/08 02:11:49;;;;;;;5.93;5.37;;;9.20;99.90;;;;;;6063383;23;20629;-67
2021/10/08 02:14:15;;;;;;;7.03;6.40;;;9.30;99.90;;;;;;6063275;23;20634;-65
2021/10/08 02:16:43;;;;;;;6.77;6.17;;;9.20;99.90;;;;;;6063394;23;20556;-64
2021/10/08 02:19:09;;;;;;;8.37;6.03;;;9.20;99.90;;;;;;6063284;23;20179;-65
2021/10/08 02:21:38;;;;;;;6.23;5.63;;;9.20;99.90;;;;;;6037971;23;20726;-64
2021/10/08 02:24:04;;;;;;;7.03;6.43;;;9.10;99.90;;;;;;6063144;23;20202;-64
2021/10/08 02:26:29;;;;;;;6.83;6.23;;;9.10;99.90;;;;;;6064243;23;20635;-64
2021/10/08 02:28:55;;;;;;;6.70;6.10;;;9.10;99.90;;;;;;6062287;23;20572;-64
2021/10/08 02:31:23;;;;;;;6.47;5.93;;;9.10;99.90;;;;;;6063726;23;20241;-65
2021/10/08 02:33:53;;;;;;;6.73;6.00;;;9.10;99.90;;;;;;6062523;23;20199;-64
2021/10/08 02:36:19;;;;;;;5.70;5.20;;;9.10;99.90;;;;;;6063567;23;20567;-65
2021/10/08 02:38:44;;;;;;;6.47;5.87;;;9.00;99.90;;;;;;6062504;23;20643;-66
2021/10/08 02:41:10;;;;;;;6.63;6.03;;;9.10;99.90;;;;;;6063453;23;20180;-65
2021/10/08 02:43:38;;;;;;;6.37;5.77;;;9.00;99.90;;;;;;6036909;23;20206;-65
2021/10/08 02:46:06;;;;;;;6.60;6.00;;;9.00;99.90;;;;;;6062766;23;20156;-65
2021/10/08 02:48:33;;;;;;;6.37;5.80;;;9.00;99.90;;;;;;6062370;23;20587;-64
2021/10/08 02:50:59;;;;;;;7.63;6.00;;;9.00;99.90;;;;;;6038222;23;20659;-66
2021/10/08 02:53:24;;;;;;;5.97;5.47;;;9.00;99.90;;;;;;6062712;23;21133;-65
2021/10/08 02:55:50;;;;;;;6.30;5.70;;;8.90;99.90;;;;;;6060738;23;20152;-65
2021/10/08 02:58:15;;;;;;;6.80;6.10;;;8.90;99.90;;;;;;6037179;23;20665;-65
2021/10/08 03:00:41;;;;;;;6.70;6.10;;;8.90;99.90;;;;;;6063324;23;20532;-65
2021/10/08 03:03:07;;;;;;;5.90;5.40;;;8.80;99.90;;;;;;6062153;23;20175;-67
2021/10/08 03:05:33;;;;;;;6.37;5.80;;;8.80;99.90;;;;;;6063382;23;20967;-64
2021/10/08 03:07:58;;;;;;;6.50;5.90;;;8.80;99.90;;;;;;6063371;23;20215;-65
2021/10/08 03:10:24;;;;;;;6.50;5.90;;;8.80;99.90;;;;;;6081222;23;20176;-66
2021/10/08 03:12:49;;;;;;;6.57;5.97;;;8.80;99.90;;;;;;6053667;23;20168;-65
2021/10/08 03:15:17;;;;;;;6.43;5.90;;;8.80;99.90;;;;;;6040459;23;20275;-66
2021/10/08 03:17:48;;;;;;;6.90;6.20;;;8.80;99.90;;;;;;6063417;23;20595;-66
2021/10/08 03:20:14;;;;;;;6.13;5.53;;;8.80;99.90;;;;;;6064626;23;20595;-65
2021/10/08 03:22:40;;;;;;;6.00;5.50;;;8.70;99.90;;;;;;6064993;23;20606;-67
2021/10/08 03:25:08;;;;;;;6.30;5.70;;;8.70;99.90;;;;;;6064871;23;20199;-65
2021/10/08 03:27:35;;;;;;;6.67;5.33;;;8.70;99.90;;;;;;6065333;23;20527;-65
2021/10/08 03:30:03;;;;;;;6.10;5.50;;;8.70;99.90;;;;;;6065528;23;20543;-66
2021/10/08 03:32:28;;;;;;;6.03;5.50;;;8.70;99.90;;;;;;6065905;23;21067;-64
2021/10/08 03:34:54;;;;;;;7.17;6.47;;;8.70;99.90;;;;;;6064701;23;20603;-64
2021/10/08 03:37:24;;;;;;;6.20;5.70;;;8.60;99.90;;;;;;6065283;23;20156;-65
2021/10/08 03:39:52;;;;;;;6.30;5.77;;;8.60;99.90;;;;;;6038588;23;20171;-66
2021/10/08 03:42:21;;;;;;;7.20;6.60;;;8.60;99.90;;;;;;6065013;23;20675;-64
2021/10/08 03:45:03;;;;;;;6.83;6.27;;;8.60;99.90;;;;;;6064567;23;20599;-64
2021/10/08 03:47:41;;;;;;;6.90;6.30;;;8.60;99.90;;;;;;6064914;23;20504;-65
2021/10/08 03:50:09;;;;;;;6.20;5.70;;;8.60;99.90;;;;;;6064496;23;20574;-65
2021/10/08 03:52:35;;;;;;;6.93;6.30;;;8.50;99.90;;;;;;6065565;23;20675;-67
2021/10/08 03:55:00;;;;;;;6.20;5.70;;;8.50;99.90;;;;;;6063981;23;20639;-65
2021/10/08 03:57:26;;;;;;;6.10;5.50;;;8.50;99.90;;;;;;6037461;23;20168;-65
2021/10/08 03:59:51;;;;;;;6.50;5.90;;;8.50;99.90;;;;;;6064436;23;20607;-64
2021/10/08 04:02:17;;;;;;;6.70;6.10;;;8.50;99.90;;;;;;6065014;23;20187;-65
2021/10/08 04:04:43;;;;;;;5.83;5.33;;;8.50;99.90;;;;;;6063100;23;20211;-65
2021/10/08 04:07:10;;;;;;;6.37;5.67;;;8.50;99.90;;;;;;6064565;23;20171;-66
2021/10/08 04:09:38;;;;;;;6.30;5.80;;;8.40;99.90;;;;;;6064378;23;20582;-66
2021/10/08 04:12:04;;;;;;;6.17;5.57;;;8.40;99.90;;;;;;6064364;23;20575;-65
2021/10/08 04:14:32;;;;;;;6.30;5.80;;;8.40;99.90;;;;;;6037360;23;20650;-65
2021/10/08 04:17:05;;;;;;;6.73;6.13;;;8.40;99.90;;;;;;6064304;23;20168;-65
2021/10/08 04:19:31;;;;;;;5.97;5.43;;;8.40;99.90;;;;;;6064725;23;20636;-65
2021/10/08 04:21:57;;;;;;;6.60;6.00;;;8.40;99.90;;;;;;6063421;23;20596;-65
2021/10/08 04:24:30;;;;;;;5.90;5.40;;;8.40;99.90;;;;;;6063754;23;20223;-65
2021/10/08 04:26:55;;;;;;;6.70;6.10;;;8.40;99.90;;;;;;6064698;23;20155;-65
2021/10/08 04:29:21;;;;;;;6.50;5.90;;;8.30;99.90;;;;;;6063662;23;20540;-66
2021/10/08 04:31:46;;;;;;;6.83;6.03;;;8.30;99.90;;;;;;6063499;23;20180;-66
2021/10/08 04:34:12;;;;;;;6.00;5.50;;;8.30;99.90;;;;;;6062471;23;20229;-64
2021/10/08 04:36:40;;;;;;;6.10;5.33;;;8.30;99.90;;;;;;6062958;23;20162;-65
2021/10/08 04:39:06;;;;;;;6.27;5.67;;;8.30;99.90;;;;;;6062793;23;20167;-64
2021/10/08 04:41:32;;;;;;;6.93;6.33;;;8.30;99.90;;;;;;6063124;23;20596;-65
2021/10/08 04:43:57;;;;;;;5.87;5.37;;;8.20;99.90;;;;;;6062255;23;20607;-65
2021/10/08 04:46:25;;;;;;;6.00;5.50;;;8.20;99.90;;;;;;6062522;23;20227;-65
2021/10/08 04:48:51;;;;;;;6.17;5.60;;;8.20;99.90;;;;;;6061533;23;20529;-66
2021/10/08 04:51:17;;;;;;;6.03;5.43;;;8.20;99.90;;;;;;6064802;23;20599;-65
2021/10/08 04:53:42;;;;;;;6.60;6.00;;;8.20;99.90;;;;;;6064562;23;20670;-64
2021/10/08 04:56:10;;;;;;;6.57;6.07;;;8.20;99.90;;;;;;6064777;23;20163;-65
2021/10/08 04:58:36;;;;;;;6.27;5.67;;;8.20;99.90;;;;;;6063143;23;20203;-64
2021/10/08 05:01:02;;;;;;;6.43;5.93;;;8.20;99.90;;;;;;6064824;23;20575;-66
2021/10/08 05:03:28;;;;;;;6.53;5.93;;;8.20;99.90;;;;;;6064155;23;20278;-64
2021/10/08 05:05:54;;;;;;;7.07;6.37;;;8.20;99.90;;;;;;6065032;23;21003;-65
2021/10/08 05:08:23;;;;;;;6.57;5.97;;;8.10;99.90;;;;;;6065148;23;20152;-64
2021/10/08 05:10:51;;;;;;;7.00;6.40;;;8.10;99.90;;;;;;6064916;23;20212;-65
2021/10/08 05:13:19;;;;;;;6.43;5.83;;;8.10;99.90;;;;;;6064845;23;20681;-64
2021/10/08 05:15:48;;;;;;;5.77;5.27;;;8.10;99.90;;;;;;6064768;23;20590;-64
2021/10/08 05:18:16;;;;;;;5.77;5.27;;;8.10;99.90;;;;;;6064897;23;20965;-65
2021/10/08 05:20:41;;;;;;;8.67;5.73;;;8.10;99.90;;;;;;6064443;23;21009;-66
2021/10/08 05:23:17;;;;;;;6.70;6.10;;;8.10;99.90;;;;;;6063590;23;20611;-64
2021/10/08 05:25:46;;;;;;;5.90;5.40;;;8.10;99.90;;;;;;6065150;23;20180;-64
2021/10/08 05:28:11;;;;;;;5.57;5.07;;;8.10;99.90;;;;;;6064943;23;20528;-64
2021/10/08 05:30:37;;;;;;;6.10;5.50;;;8.10;99.90;;;;;;6063463;23;21132;-65
2021/10/08 05:33:03;;;;;;;7.73;6.70;;;8.10;99.90;;;;;;6064228;23;20162;-65
2021/10/08 05:35:28;;;;;;;6.40;5.80;;;8.00;99.90;;;;;;6039560;23;20167;-65
2021/10/08 05:37:54;;;;;;;6.20;5.60;;;8.10;99.90;;;;;;6064048;23;20214;-66
2021/10/08 05:40:19;;;;;;;5.80;5.33;;;8.00;99.90;;;;;;6064432;23;20186;-65
2021/10/08 05:42:47;;;;;;;6.50;5.90;;;8.00;99.90;;;;;;6039216;23;20195;-65
2021/10/08 05:45:15;;;;;;;5.77;5.27;;;8.00;99.90;;;;;;6063980;23;20721;-64
2021/10/08 05:47:41;;;;;;;5.73;5.20;;;8.00;99.90;;;;;;6038052;23;20568;-65
2021/10/08 05:50:07;;;;;;;6.73;6.03;;;8.00;99.90;;;;;;6064444;23;20579;-65
2021/10/08 05:52:36;;;;;;;6.40;5.80;;;7.90;99.90;;;;;;6065125;23;20163;-64
2021/10/08 05:55:04;;;;;;;8.90;5.90;;;7.90;99.90;;;;;;6065622;23;20606;-64
2021/10/08 05:57:31;;;;;;;6.63;6.03;;;7.90;99.90;;;;;;6067245;23;20596;-64
2021/10/08 05:59:57;;;;;;;6.07;5.57;;;8.00;99.90;;;;;;6037693;23;21090;-64
2021/10/08 06:02:23;;;;;;;5.60;5.10;;;7.90;99.90;;;;;;6064780;23;20587;-65
2021/10/08 06:04:48;;;;;;;7.63;5.70;;;8.00;99.90;;;;;;6063759;23;20218;-64
2021/10/08 06:07:14;;;;;;;6.87;6.13;;;8.00;99.90;;;;;;6064195;23;20164;-64
2021/10/08 06:09:44;;;;;;;6.60;5.67;;;7.90;99.90;;;;;;6064811;23;20163;-65
2021/10/08 06:12:13;;;;;;;5.80;5.20;;;7.90;99.90;;;;;;6064718;23;20599;-65
2021/10/08 06:14:39;;;;;;;5.60;5.10;;;7.90;99.90;;;;;;6061645;23;20933;-65
2021/10/08 06:17:05;;;;;;;5.90;5.40;;;8.00;99.90;;;;;;6064650;23;20544;-65
2021/10/08 06:19:31;;;;;;;6.23;5.63;;;8.00;99.90;;;;;;6064547;23;20532;-65
2021/10/08 06:21:56;;;;;;;7.07;6.47;;;7.90;99.90;;;;;;6064329;23;20885;-65
2021/10/08 06:24:25;;;;;;;7.03;6.20;;;7.90;99.90;;;;;;6063763;23;20713;-64
2021/10/08 06:26:51;;;;;;;6.60;6.00;;;7.90;99.90;;;;;;6064610;23;20646;-65
2021/10/08 06:29:17;;;;;;;6.80;6.10;;;7.90;99.90;;;;;;6064697;23;20536;-65
2021/10/08 06:31:42;;;;;;;6.40;5.80;;;7.90;99.90;;;;;;6064448;23;20630;-65
2021/10/08 06:34:08;;;;;;;6.67;5.97;;;7.90;99.90;;;;;;6064360;23;20282;-64
2021/10/08 06:36:33;;;;;;;6.97;6.27;;;7.90;99.90;;;;;;6066730;23;20617;-65
2021/10/08 06:38:59;;;;;;;6.20;5.60;;;8.00;99.90;;;;;;6067750;23;20163;-65
2021/10/08 06:41:25;;;;;;;6.60;6.00;;;7.90;99.90;;;;;;6068270;23;20496;-64
2021/10/08 06:43:52;;;;;;;6.93;5.70;;;7.90;99.90;;;;;;6064013;23;20199;-64
2021/10/08 06:46:20;;;;;;;7.07;6.17;;;7.90;99.90;;;;;;6038938;23;20180;-65
2021/10/08 06:48:45;;;;;;;7.33;6.63;;;8.00;99.90;;;;;;6062780;23;21058;-65
2021/10/08 06:51:11;;;;;;;8.60;7.33;;;8.00;99.90;;;;;;6065054;23;20568;-64
2021/10/08 06:53:36;;;;;;;7.10;6.13;;;8.00;99.90;;;;;;6063256;23;20195;-64
2021/10/08 06:56:02;;;;;;;7.53;6.93;;;8.00;99.90;;;;;;6065288;23;20603;-65
2021/10/08 06:58:28;;;;;;;6.83;6.23;;;8.10;99.90;;;;;;6066252;23;20231;-65
2021/10/08 07:00:54;;;;;;;8.57;7.57;;;8.00;99.90;;;;;;6064295;23;20770;-65
2021/10/08 07:03:26;;;;;;;8.60;7.03;;;8.10;99.90;;;;;;6065083;23;20259;-63
2021/10/08 07:05:54;;;;;;;7.70;6.90;;;8.10;99.90;;;;;;6066778;23;20509;-64
2021/10/08 07:08:22;;;;;;;8.60;7.80;;;8.10;99.90;;;;;;6040722;23;20658;-65
2021/10/08 07:10:47;;;;;;;7.67;6.70;;;8.20;99.90;;;;;;6065520;23;20663;-64
2021/10/08 07:13:16;;;;;;;7.80;6.93;;;8.30;99.90;;;;;;6063725;23;20590;-64
2021/10/08 07:15:44;;;;;;;8.03;7.17;;;8.40;99.90;;;;;;6066279;23;20595;-65
2021/10/08 07:18:15;;;;;;;8.77;6.87;;;8.50;99.90;;;;;;6066094;23;20543;-64
2021/10/08 07:20:44;;;;;;;10.40;7.90;;;8.50;99.90;;;;;;6065272;23;20563;-64
2021/10/08 07:23:12;;;;;;;9.17;7.40;;;8.50;99.90;;;;;;6064596;23;20603;-64
2021/10/08 07:25:37;;;;;;;8.20;7.40;;;8.60;99.90;;;;;;6066101;23;20542;-64
2021/10/08 07:28:05;;;;;;;10.60;9.50;;;8.70;99.90;;;;;;6066118;23;20948;-64
2021/10/08 07:30:33;;;;;;;9.90;8.90;;;8.70;99.90;;;;;;6065761;23;20762;-64
2021/10/08 07:32:58;;;;;;;9.10;8.30;;;8.80;99.90;;;;;;6064843;23;20555;-64
2021/10/08 07:35:24;;;;;;;9.87;8.87;;;8.90;99.90;;;;;;6064790;23;21054;-65
2021/10/08 07:37:54;;;;;;;10.47;8.87;;;9.00;99.90;;;;;;6065682;23;20160;-64
2021/10/08 07:40:20;;;;;;;10.60;9.40;;;9.20;99.90;;;;;;6065597;23;20186;-64
2021/10/08 07:42:48;;;;;;;10.40;9.40;;;9.30;99.90;;;;;;6040057;23;21250;-65
2021/10/08 07:45:13;;;;;;;10.60;9.53;;;9.40;99.90;;;;;;6064789;23;20205;-64
2021/10/08 07:47:41;;;;;;;12.93;10.83;;;9.50;99.90;;;;;;6065762;23;20532;-64
2021/10/08 07:50:08;;;;;;;11.43;9.93;;;9.60;99.90;;;;;;6063724;23;20225;-65
2021/10/08 07:52:37;;;;;;;11.00;9.90;;;9.70;99.90;;;;;;6065957;23;20629;-64
2021/10/08 07:55:09;;;;;;;14.77;12.73;;;9.80;99.90;;;;;;6065158;23;20672;-65
2021/10/08 07:57:38;;;;;;;14.67;11.53;;;9.80;99.90;;;;;;6065447;23;20548;-66
2021/10/08 08:00:11;;;;;;;16.27;12.73;;;10.00;99.90;;;;;;6063909;23;21066;-65
2021/10/08 08:02:37;;;;;;;13.93;12.47;;;10.10;99.90;;;;;;6065780;23;20704;-65
2021/10/08 08:05:02;;;;;;;18.00;12.70;;;10.20;99.90;;;;;;6065077;23;20635;-64
2021/10/08 08:07:31;;;;;;;16.40;13.27;;;10.30;99.90;;;;;;6065135;23;20156;-64
2021/10/08 08:09:59;;;;;;;15.70;13.17;;;10.40;99.90;;;;;;6064880;23;20152;-65
2021/10/08 08:12:26;;;;;;;14.23;12.77;;;10.50;99.90;;;;;;6040822;23;20563;-65
2021/10/08 08:14:52;;;;;;;16.03;14.00;;;10.60;99.90;;;;;;6065632;23;20599;-65
2021/10/08 08:17:19;;;;;;;19.20;14.50;;;10.80;99.90;;;;;;6065418;23;20587;-65
2021/10/08 08:19:44;;;;;;;15.90;13.53;;;10.80;99.90;;;;;;6066086;23;20167;-65
2021/10/08 08:22:10;;;;;;;18.77;13.73;;;10.90;99.90;;;;;;6065914;23;20911;-64
2021/10/08 08:24:36;;;;;;;15.13;13.60;;;11.00;99.90;;;;;;6065192;23;20204;-65
2021/10/08 08:27:04;;;;;;;15.17;13.57;;;11.10;99.90;;;;;;6065262;23;20156;-68
2021/10/08 08:29:30;;;;;;;14.37;12.47;;;11.20;99.90;;;;;;6065963;23;20175;-65
2021/10/08 08:31:58;;;;;;;15.80;13.40;;;11.40;99.90;;;;;;6066385;23;20903;-65
2021/10/08 08:34:25;;;;;;;16.67;12.50;;;11.50;99.90;;;;;;6065061;23;20599;-65
2021/10/08 08:36:51;;;;;;;14.67;13.17;;;11.60;99.90;;;;;;6039879;23;20558;-65
2021/10/08 08:39:18;;;;;;;14.37;12.97;;;11.70;99.90;;;;;;6066394;23;20555;-64
2021/10/08 08:41:44;;;;;;;15.63;13.37;;;11.70;99.90;;;;;;6066002;23;20270;-65
2021/10/08 08:44:10;;;;;;;15.20;13.67;;;11.80;99.90;;;;;;6064455;23;20595;-65
2021/10/08 08:46:36;;;;;;;15.30;13.33;;;11.90;99.90;;;;;;6066289;23;20629;-64
2021/10/08 08:49:02;;;;;;;15.20;13.67;;;12.00;99.90;;;;;;6065805;23;20160;-64
2021/10/08 08:51:28;;;;;;;14.73;13.23;;;12.10;99.90;;;;;;6066210;23;20183;-64
2021/10/08 08:54:01;;;;;;;14.80;13.20;;;12.20;99.90;;;;;;6064310;23;20599;-65
2021/10/08 08:56:29;;;;;;;17.40;13.50;;;12.30;99.90;;;;;;6067078;23;20531;-65
2021/10/08 08:59:11;;;;;;;14.33;12.93;;;12.40;99.90;;;;;;6065858;23;20548;-65
2021/10/08 09:01:58;;;;;;;14.10;12.57;;;12.60;99.90;;;;;;6064468;23;20941;-65
2021/10/08 09:04:28;;;;;;;13.93;12.43;;;12.70;99.90;;;;;;6064717;23;20611;-65
2021/10/08 09:06:55;;;;;;;14.73;12.27;;;12.80;99.90;;;;;;6040692;23;20902;-65
2021/10/08 09:09:22;;;;;;;17.30;13.00;;;12.90;99.90;;;;;;6066143;23;20599;-64
2021/10/08 09:11:50;;;;;;;13.60;12.30;;;12.90;99.90;;;;;;6065821;23;20611;-65
2021/10/08 09:14:26;;;;;;;13.47;12.27;;;13.10;99.90;;;;;;6066119;23;20619;-64
2021/10/08 09:17:15;;;;;;;12.80;11.30;;;13.20;99.90;;;;;;6066598;23;20563;-63
2021/10/08 09:20:05;;;;;;;13.00;11.80;;;13.30;99.90;;;;;;6065698;23;21138;-64
2021/10/08 09:22:49;;;;;;;11.97;10.67;;;13.40;99.90;;;;;;6067005;23;20583;-64
2021/10/08 09:25:26;;;;;;;11.70;10.70;;;13.50;99.90;;;;;;6039046;23;20596;-66
2021/10/08 09:28:01;;;;;;;10.60;9.50;;;13.60;99.90;;;;;;6064711;23;20548;-64
2021/10/08 09:30:54;;;;;;;8.73;7.83;;;13.70;99.90;;;;;;6065465;23;20563;-63
2021/10/08 09:33:22;;;;;;;8.57;7.77;;;13.80;99.90;;;;;;6039424;23;20591;-65
2021/10/08 09:35:55;;;;;;;8.63;7.73;;;14.00;99.90;;;;;;6066094;23;20583;-64
2021/10/08 09:38:23;;;;;;;8.50;7.63;;;14.10;99.90;;;;;;6064491;23;20547;-63
2021/10/08 09:40:55;;;;;;;8.17;7.37;;;14.20;99.90;;;;;;6065256;23;20580;-65
2021/10/08 09:43:23;;;;;;;6.93;6.33;;;14.30;99.90;;;;;;6062762;23;20703;-64
2021/10/08 09:45:57;;;;;;;6.40;5.90;;;14.40;99.90;;;;;;6039743;23;20574;-64
2021/10/08 09:48:33;;;;;;;5.50;5.00;;;14.50;99.90;;;;;;6039433;23;20567;-64
2021/10/08 09:51:04;;;;;;;5.80;5.20;;;14.60;99.90;;;;;;6065621;23;20567;-64
2021/10/08 09:53:33;;;;;;;5.60;5.10;;;14.70;99.90;;;;;;6064609;23;20584;-64
2021/10/08 09:56:24;;;;;;;5.90;5.17;;;14.80;99.90;;;;;;6039092;23;20635;-63
2021/10/08 09:58:53;;;;;;;5.47;4.53;;;15.00;99.90;;;;;;6065119;23;20579;-64
2021/10/08 10:01:32;;;;;;;4.80;4.50;;;15.10;99.90;;;;;;6065617;23;20572;-64
2021/10/08 10:04:03;;;;;;;4.77;4.37;;;15.20;99.90;;;;;;6062953;23;20672;-64
2021/10/08 10:06:29;;;;;;;5.80;5.07;;;15.30;99.90;;;;;;6040079;23;20599;-64
2021/10/08 10:08:55;;;;;;;4.70;4.33;;;15.30;99.90;;;;;;6065143;23;20564;-65
2021/10/08 10:11:25;;;;;;;5.93;5.37;;;15.50;99.90;;;;;;6064691;23;21095;-64
2021/10/08 10:14:00;;;;;;;5.03;4.67;;;15.60;99.90;;;;;;6064005;23;20274;-64
2021/10/08 10:16:31;;;;;;;5.23;4.57;;;15.70;99.90;;;;;;6065051;23;20508;-64
2021/10/08 10:18:58;;;;;;;5.57;5.07;;;15.80;99.90;;;;;;6065468;23;20536;-64
2021/10/08 10:21:26;;;;;;;5.27;4.83;;;15.90;99.90;;;;;;6063690;23;20718;-64
2021/10/08 10:24:02;;;;;;;5.00;4.57;;;16.00;99.90;;;;;;6064200;23;20588;-64
2021/10/08 10:26:31;;;;;;;5.50;5.00;;;16.10;99.90;;;;;;6065327;23;20856;-64
2021/10/08 10:29:01;;;;;;;5.70;5.20;;;16.20;99.90;;;;;;6063572;23;20535;-64
2021/10/08 10:31:27;;;;;;;4.63;4.23;;;16.40;99.90;;;;;;6066737;23;20570;-64
2021/10/08 10:34:01;;;;;;;5.30;4.80;;;16.50;99.90;;;;;;6065866;23;20599;-64
2021/10/08 10:36:37;;;;;;;4.37;4.00;;;16.60;99.90;;;;;;6041996;23;20651;-64
2021/10/08 10:39:11;;;;;;;5.00;4.60;;;16.70;99.90;;;;;;6066879;23;20546;-65
2021/10/08 10:41:40;;;;;;;4.50;4.10;;;16.70;99.90;;;;;;6067043;23;20935;-63
2021/10/08 10:44:34;;;;;;;4.53;4.20;;;16.80;99.90;;;;;;6066166;23;20990;-65
2021/10/08 10:47:22;;;;;;;4.30;3.90;;;16.90;99.90;;;;;;6065881;23;20492;-66
2021/10/08 10:50:26;;;;;;;3.90;3.57;;;17.00;99.90;;;;;;6065812;23;21443;-64
2021/10/08 10:52:55;;;;;;;3.60;3.30;;;17.20;99.90;;;;;;6066572;23;20515;-64
2021/10/08 10:55:25;;;;;;;4.13;3.10;;;17.30;99.90;;;;;;6039908;23;20592;-64
2021/10/08 10:57:56;;;;;;;3.70;3.03;;;17.40;99.90;;;;;;6066648;23;20528;-65
2021/10/08 11:00:29;;;;;;;3.20;3.00;;;17.60;99.90;;;;;;6066367;23;20601;-66
2021/10/08 11:03:04;;;;;;;4.20;3.00;;;17.60;99.90;;;;;;6066075;23;20637;-61
2021/10/08 11:05:31;;;;;;;3.30;3.00;;;17.70;99.90;;;;;;6064791;23;20501;-65
2021/10/08 11:08:05;;;;;;;4.53;3.50;;;17.70;99.90;;;;;;6066191;23;20969;-65
2021/10/08 11:10:33;;;;;;;3.33;3.03;;;17.80;99.90;;;;;;6041388;23;20623;-64
2021/10/08 11:13:26;;;;;;;3.23;3.03;;;18.00;99.90;;;;;;6066410;23;20574;-64
2021/10/08 11:16:04;;;;;;;3.30;3.00;;;18.10;99.90;;;;;;6067717;23;20907;-66
2021/10/08 11:18:45;;;;;;;2.93;2.73;;;18.20;99.90;;;;;;6066195;23;20885;-66
2021/10/08 11:21:45;;;;;;;2.93;2.73;;;18.40;99.90;;;;;;6065066;23;20560;-66
2021/10/08 11:24:23;;;;;;;4.00;3.60;;;18.50;99.90;;;;;;6059704;23;20686;-65
2021/10/08 11:27:03;;;;;;;4.13;3.40;;;18.70;99.90;;;;;;6066766;23;20504;-66
2021/10/08 11:29:34;;;;;;;3.10;2.90;;;18.90;99.90;;;;;;6041134;23;20911;-67
2021/10/08 11:32:07;;;;;;;3.97;3.20;;;19.00;99.90;;;;;;6066040;23;20568;-67
2021/10/08 11:34:45;;;;;;;3.23;2.97;;;19.20;99.90;;;;;;6065487;23;20965;-66
2021/10/08 11:37:11;;;;;;;3.83;3.43;;;19.30;99.90;;;;;;6066528;23;20511;-66
2021/10/08 11:39:45;;;;;;;2.97;2.77;;;19.50;99.90;;;;;;6066293;23;20617;-66
2021/10/08 11:42:17;;;;;;;3.27;2.70;;;19.70;99.90;;;;;;6066500;23;20179;-66
2021/10/08 11:47:52;;;;;;;2.53;2.30;;;20.10;99.90;;;;;;6053047;23;20578;-67
2021/10/08 11:53:02;;;;;;;2.20;2.10;;;20.50;99.90;;;;;;6073773;23;20599;-66
2021/10/08 11:55:38;;;;;;;1.87;1.73;;;20.80;99.90;;;;;;6040238;23;20572;-66
2021/10/08 11:58:10;;;;;;;2.40;2.07;;;21.20;99.90;;;;;;6064907;23;20938;-68
2021/10/08 12:00:50;;;;;;;2.10;1.80;;;21.70;99.90;;;;;;6065789;23;20587;-66
2021/10/08 12:03:16;;;;;;;1.90;1.80;;;22.40;99.90;;;;;;6063647;23;20599;-67
2021/10/08 12:06:19;;;;;;;1.70;1.60;;;22.70;99.90;;;;;;6062681;23;20508;-67
2021/10/08 12:08:44;;;;;;;1.57;1.47;;;23.70;99.90;;;;;;6046393;23;20564;-66
2021/10/08 12:11:16;;;;;;;1.50;1.40;;;25.50;99.90;;;;;;6040170;23;20665;-67
2021/10/08 12:13:50;;;;;;;1.57;1.47;;;28.20;99.90;;;;;;6062894;23;20206;-66
2021/10/08 12:16:32;;;;;;;1.60;1.50;;;30.90;99.90;;;;;;6065731;23;20961;-68
2021/10/08 12:19:07;;;;;;;2.20;1.00;;;33.00;93.40;;;;;;6064336;23;20515;-68
2021/10/08 12:21:38;;;;;;;1.50;1.20;;;35.30;83.10;;;;;;6064726;23;20706;-67
2021/10/08 12:24:21;;;;;;;1.40;1.30;;;37.30;70.00;;;;;;6063371;23;20596;-68
2021/10/08 12:26:57;;;;;;;1.20;1.20;;;38.90;62.80;;;;;;6065447;23;21042;-68
2021/10/08 12:29:23;;;;;;;1.47;1.37;;;40.40;54.20;;;;;;6065484;23;20597;-68
2021/10/08 12:31:51;;;;;;;1.60;1.50;;;41.50;52.80;;;;;;6064362;23;21179;-68
2021/10/08 12:34:36;;;;;;;1.60;1.50;;;42.00;48.40;;;;;;6063744;23;20701;-68
2021/10/08 12:37:03;;;;;;;2.28;1.30;;;42.80;45.90;;;;;;6064923;23;20673;-68
2021/10/08 12:39:33;;;;;;;1.77;1.67;;;43.40;44.90;;;;;;6065524;23;20155;-69
2021/10/08 12:42:03;;;;;;;2.45;1.98;;;44.00;45.20;;;;;;6063455;23;20197;-68
2021/10/08 12:44:31;;;;;;;1.80;1.70;;;44.20;44.70;;;;;;6064451;23;20202;-68
2021/10/08 12:47:15;;;;;;;2.08;1.90;;;44.60;43.50;;;;;;6038417;23;20165;-68
2021/10/08 12:49:53;;;;;;;3.10;1.85;;;44.50;42.50;;;;;;6065511;23;20139;-68
2021/10/08 12:52:51;;;;;;;1.70;1.60;;;44.50;42.20;;;;;;6065152;23;20653;-67
2021/10/08 12:55:30;;;;;;;2.13;2.03;;;44.50;41.60;;;;;;6002171;23;20199;-68
2021/10/08 12:58:15;;;;;;;2.08;1.88;;;44.30;41.20;;;;;;6065362;23;20193;-68
2021/10/08 13:00:52;;;;;;;2.33;2.22;;;44.00;42.50;;;;;;6058898;23;20185;-68
2021/10/08 13:03:42;;;;;;;2.55;2.35;;;43.90;43.90;;;;;;6063826;23;20222;-68
2021/10/08 13:06:17;;;;;;;2.63;2.42;;;43.50;43.20;;;;;;6061800;23;20171;-68
2021/10/08 13:09:04;;;;;;;3.03;2.80;;;43.20;43.60;;;;;;6063758;23;20178;-68